Time;durP1;ratioP1;P1;durP2;ratioP2;P2;SDS_P1;SDS_P2;PMS_P1;PMS_P2;Temp;Humidity;BMP_temperature;BMP_pressure;BME280_temperature;BME280_humidity;BME280_pressure;Samples;Min_cycle;Max_cycle;Signal;HPM_P1;HPM_P2
2022/10/16 08:35:15;;;;;;;11.68;1.95;;;;;;;16.23;83.42;96723.41;2111249;27;129492;-69
2022/10/16 08:36:16;;;;;;;10.80;1.70;;;;;;;16.21;82.80;96722.63;2103554;28;20194;-69
2022/10/16 08:37:18;;;;;;;8.82;1.40;;;;;;;16.29;82.53;96718.56;2106669;28;20230;-69
2022/10/16 08:38:20;;;;;;;2.80;1.52;;;;;;;16.31;82.01;96726.34;2079732;28;20227;-69
2022/10/16 08:39:21;;;;;;;8.88;1.25;;;;;;;16.29;81.35;96718.56;2086759;28;20228;-69
2022/10/16 09:00:56;;;;;;;2.03;1.10;;;;;;;16.98;77.46;96730.66;2110920;27;20524;-69
2022/10/16 09:01:59;;;;;;;6.00;1.10;;;;;;;17.14;76.81;96719.88;2107691;28;20194;-69
2022/10/16 09:10:28;;;;;;;4.78;1.38;;;;;;;17.85;74.61;96751.81;2082211;28;20181;-69
2022/10/16 09:12:00;;;;;;;2.08;1.10;;;;;;;17.93;74.12;96752.13;2082692;28;20287;-69
2022/10/16 09:13:29;;;;;;;7.72;1.45;;;;;;;18.07;74.00;96753.75;2073060;28;20816;-69
2022/10/16 09:14:56;;;;;;;6.60;1.55;;;;;;;17.75;75.77;96753.41;2087807;28;20879;-69
2022/10/16 09:28:26;;;;;;;4.75;1.58;;;;;;;18.21;74.59;96746.63;2090800;27;20594;-69
2022/10/16 09:29:28;;;;;;;3.95;1.45;;;;;;;18.50;73.75;96751.53;2098881;28;20195;-69
2022/10/16 09:30:30;;;;;;;2.53;1.52;;;;;;;18.58;74.06;96751.81;2097866;28;20657;-69
2022/10/16 09:31:31;;;;;;;3.42;1.42;;;;;;;18.43;73.89;96754.63;2095329;28;20347;-69
2022/10/16 09:32:33;;;;;;;4.85;1.15;;;;;;;18.40;73.96;96757.50;2095543;28;20250;-69
2022/10/16 09:39:04;;;;;;;5.68;1.40;;;;;;;20.44;69.69;96756.66;2085911;28;20551;-71
2022/10/16 09:40:06;;;;;;;10.13;1.27;;;;;;;20.64;67.26;96756.81;2094572;28;20206;-71
2022/10/16 09:41:28;;;;;;;6.85;1.17;;;;;;;20.65;66.94;96732.78;2095306;28;20196;-71
2022/10/16 09:42:35;;;;;;;5.55;1.13;;;;;;;20.87;65.69;96768.16;2096884;28;20616;-71
2022/10/16 09:43:55;;;;;;;5.50;1.30;;;;;;;20.95;66.74;96759.53;2095917;28;20575;-72
2022/10/16 09:44:57;;;;;;;3.47;1.20;;;;;;;21.87;65.21;96779.16;2095092;28;20271;-71
2022/10/16 09:46:05;;;;;;;8.38;1.30;;;;;;;23.64;60.80;96784.22;2095468;28;20230;-72
2022/10/16 09:47:22;;;;;;;7.18;1.17;;;;;;;25.50;56.72;96776.63;2094574;28;20223;-72
2022/10/16 09:48:28;;;;;;;1.92;1.20;;;;;;;25.50;56.11;96773.94;2087155;28;20230;-71
2022/10/16 09:49:33;;;;;;;4.20;0.90;;;;;;;25.23;56.55;96777.59;2097191;28;20290;-71
2022/10/16 09:50:35;;;;;;;2.85;0.90;;;;;;;24.37;58.44;96773.72;2096971;28;20290;-71
2022/10/16 09:57:04;;;;;;;3.20;1.10;;;;;;;22.54;62.41;96782.03;2094676;28;20195;-71
2022/10/16 09:58:13;;;;;;;2.80;1.27;;;;;;;22.53;62.13;96780.38;2089745;28;20245;-70
2022/10/16 09:59:16;;;;;;;7.80;1.17;;;;;;;22.99;61.61;96784.97;2106308;28;20658;-71
2022/10/16 10:00:24;;;;;;;4.30;1.20;;;;;;;21.42;64.04;96762.59;2103745;28;20527;-71
2022/10/16 10:01:36;;;;;;;6.53;1.10;;;;;;;21.84;63.99;96781.09;2103884;28;20230;-70
2022/10/16 10:02:38;;;;;;;4.80;1.52;;;;;;;22.24;62.87;96776.69;2095007;28;21164;-71
2022/10/16 10:09:04;;;;;;;3.38;1.00;;;;;;;19.97;66.69;96793.19;2096467;28;20230;-71
2022/10/16 10:10:19;;;;;;;2.17;1.00;;;;;;;19.99;67.45;96786.81;2106675;28;20222;-71
2022/10/16 10:11:40;;;;;;;6.97;1.20;;;;;;;20.46;66.58;96791.03;2103344;28;20195;-70
2022/10/16 10:12:41;;;;;;;3.30;1.23;;;;;;;20.32;64.81;96774.41;2093419;28;20287;-71
2022/10/16 10:13:43;;;;;;;2.25;1.25;;;;;;;20.73;64.81;96792.38;2103085;28;20223;-71
2022/10/16 10:14:47;;;;;;;11.98;2.08;;;;;;;20.54;64.35;96783.25;2101917;28;20227;-71
2022/10/16 10:27:16;;;;;;;6.95;2.30;;;;;;;20.29;66.10;96798.56;2094908;28;20667;-70
2022/10/16 10:28:43;;;;;;;72.45;54.53;;;;;;;20.27;66.35;96797.00;2085292;28;20258;-70
2022/10/16 10:30:01;;;;;;;12.27;7.68;;;;;;;20.48;65.93;96800.53;2100777;28;20199;-73
2022/10/16 10:31:20;;;;;;;8.10;5.18;;;;;;;20.24;65.18;96782.19;2093510;28;20254;-71
2022/10/16 10:32:37;;;;;;;10.35;1.63;;;;;;;20.37;65.50;96784.66;2093164;28;20283;-72
2022/10/16 10:33:47;;;;;;;2.05;1.15;;;;;;;20.50;64.88;96797.75;2105122;28;20703;-72
2022/10/16 10:35:18;;;;;;;4.93;1.38;;;;;;;20.78;63.93;96784.88;2104448;28;20199;-74
2022/10/16 10:36:38;;;;;;;4.25;1.35;;;;;;;21.45;63.58;96801.34;2102048;28;20203;-74
2022/10/16 10:38:00;;;;;;;3.42;1.80;;;;;;;22.58;60.70;96794.94;2093764;28;20702;-74
2022/10/16 10:39:20;;;;;;;3.80;1.35;;;;;;;22.43;59.43;96785.69;2109659;28;20198;-74
2022/10/16 10:40:47;;;;;;;4.47;1.52;;;;;;;22.22;61.69;96794.59;2098957;28;20290;-73
2022/10/16 10:42:18;;;;;;;3.72;1.52;;;;;;;22.84;59.31;96797.00;2098008;28;20235;-73
2022/10/16 10:43:47;;;;;;;2.50;1.15;;;;;;;22.93;59.28;96798.84;2094200;28;20246;-73
2022/10/16 10:45:11;;;;;;;4.25;1.40;;;;;;;23.15;57.40;96800.34;2098975;28;20257;-73
2022/10/16 10:46:32;;;;;;;2.72;1.17;;;;;;;22.83;57.98;96790.84;2091152;28;20283;-73
2022/10/16 10:47:52;;;;;;;3.20;1.10;;;;;;;22.76;59.18;96788.91;2092721;28;20246;-73
2022/10/16 10:49:16;;;;;;;3.85;1.33;;;;;;;22.69;58.37;96793.09;2098116;28;20242;-74
2022/10/16 10:50:36;;;;;;;4.53;1.20;;;;;;;22.99;58.32;96802.75;2097703;28;20825;-74
2022/10/16 10:51:56;;;;;;;2.80;1.27;;;;;;;23.89;57.13;96795.19;2097103;28;20270;-74
2022/10/16 10:53:11;;;;;;;4.53;1.40;;;;;;;24.93;54.57;96796.59;2086434;28;20603;-73
2022/10/16 10:54:39;;;;;;;4.43;1.40;;;;;;;27.25;49.60;96778.63;2091200;28;20199;-73
2022/10/16 10:55:40;;;;;;;3.08;1.10;;;;;;;27.59;47.72;96788.28;2093033;28;20191;-73
2022/10/16 10:57:02;;;;;;;1.83;1.20;;;;;;;27.24;47.59;96779.66;2097245;28;20192;-74
2022/10/16 10:58:20;;;;;;;5.03;1.20;;;;;;;26.72;49.07;96790.50;2091337;28;20580;-73
2022/10/16 10:59:44;;;;;;;4.07;1.40;;;;;;;25.83;50.33;96752.69;2096459;28;20191;-74
2022/10/16 11:01:13;;;;;;;2.20;1.10;;;;;;;26.04;49.85;96795.06;2100318;28;20191;-72
2022/10/16 11:02:24;;;;;;;2.20;1.15;;;;;;;26.47;49.79;96773.59;2101370;28;20203;-73
2022/10/16 11:04:08;;;;;;;1.73;1.00;;;;;;;25.83;50.84;96787.47;2087815;28;20573;-73
2022/10/16 11:05:22;;;;;;;3.00;1.05;;;;;;;25.95;51.01;96793.34;2099259;28;20188;-73
2022/10/16 11:06:36;;;;;;;1.75;1.10;;;;;;;25.42;51.37;96785.44;2100916;28;20604;-72
2022/10/16 11:07:47;;;;;;;3.20;1.13;;;;;;;25.54;51.97;96793.19;2086630;28;20207;-72
2022/10/16 11:08:55;;;;;;;2.72;1.05;;;;;;;25.11;52.56;96793.03;2098410;28;20602;-72
2022/10/16 11:10:13;;;;;;;2.15;1.10;;;;;;;25.19;52.57;96786.91;2102019;28;20229;-72
2022/10/16 11:11:30;;;;;;;5.07;1.20;;;;;;;25.19;53.33;96801.13;2096311;28;20253;-72
2022/10/16 11:12:41;;;;;;;7.65;1.00;;;;;;;24.96;52.68;96786.59;2097156;28;20682;-73
2022/10/16 11:14:08;;;;;;;4.80;1.48;;;;;;;25.01;52.79;96800.31;2097566;28;20251;-73
2022/10/16 11:15:25;;;;;;;2.13;1.20;;;;;;;24.25;54.15;96784.63;2097278;28;20286;-73
2022/10/16 11:16:30;;;;;;;3.05;1.00;;;;;;;24.60;54.73;96777.59;2098439;28;20199;-73
2022/10/16 11:17:39;;;;;;;7.93;1.60;;;;;;;24.64;54.35;96771.97;2098467;28;20835;-73
2022/10/16 11:18:50;;;;;;;8.07;1.48;;;;;;;24.56;54.78;96794.91;2097874;28;20239;-73
2022/10/16 11:19:58;;;;;;;4.40;1.20;;;;;;;24.60;55.18;96785.59;2099123;28;20758;-73
2022/10/16 11:21:06;;;;;;;11.10;1.40;;;;;;;24.21;55.35;96771.72;2097423;28;20852;-71
2022/10/16 11:22:34;;;;;;;4.00;1.10;;;;;;;23.96;57.29;96787.47;2097404;28;20199;-69
2022/10/16 11:23:48;;;;;;;3.25;1.30;;;;;;;23.38;56.46;96770.72;2078397;28;20255;-73
2022/10/16 11:25:12;;;;;;;2.60;1.30;;;;;;;22.98;58.37;96777.94;2098437;28;20622;-73
2022/10/16 11:26:20;;;;;;;2.08;1.00;;;;;;;23.21;57.68;96787.44;2097160;28;20206;-72
2022/10/16 11:34:16;;;;;;;2.15;1.40;;;;;;;23.85;56.53;96772.47;2096540;28;20318;-71
2022/10/16 11:35:25;;;;;;;5.05;1.40;;;;;;;24.68;55.28;96782.19;2095678;28;20204;-71
2022/10/16 11:36:49;;;;;;;5.78;1.30;;;;;;;24.81;54.29;96786.31;2097571;28;20626;-71
2022/10/16 11:37:54;;;;;;;2.83;1.10;;;;;;;24.59;54.70;96789.28;2079419;28;20210;-71
2022/10/16 11:39:01;;;;;;;8.52;1.42;;;;;;;24.65;55.30;96784.34;2105184;28;20210;-74
2022/10/16 11:40:22;;;;;;;3.25;1.30;;;;;;;24.07;55.51;96784.56;2101683;28;20196;-74
2022/10/16 11:41:32;;;;;;;1.73;1.00;;;;;;;24.20;55.47;96788.72;2096633;28;20543;-74
2022/10/16 11:42:39;;;;;;;10.85;1.60;;;;;;;23.91;56.57;96784.38;2096382;28;20307;-75
2022/10/16 11:43:46;;;;;;;3.60;1.30;;;;;;;23.63;58.25;96784.38;2098288;28;20207;-75
2022/10/16 11:44:57;;;;;;;3.67;1.30;;;;;;;24.34;56.42;96782.88;2098215;28;20227;-75
2022/10/16 11:46:08;;;;;;;6.47;1.20;;;;;;;24.36;55.35;96778.22;2097979;28;20734;-74
2022/10/16 11:47:28;;;;;;;3.45;1.33;;;;;;;24.58;54.64;96779.59;2097868;28;20196;-74
2022/10/16 11:49:18;;;;;;;4.30;1.15;;;;;;;24.91;54.44;96779.03;2097690;28;20280;-74
2022/10/16 11:50:32;;;;;;;2.85;1.17;;;;;;;25.29;53.67;96770.78;2098168;28;20242;-74
2022/10/16 11:51:45;;;;;;;1.85;1.13;;;;;;;25.84;51.89;96773.09;2098389;28;20278;-74
2022/10/16 11:53:03;;;;;;;3.30;1.00;;;;;;;24.87;52.80;96765.16;2095185;28;20287;-74
2022/10/16 11:54:28;;;;;;;37.55;25.30;;;;;;;25.03;53.44;96775.13;2096851;28;20231;-73
2022/10/16 11:55:41;;;;;;;10.05;4.57;;;;;;;24.87;53.61;96770.50;2099130;28;20838;-73
2022/10/16 11:56:51;;;;;;;12.63;6.80;;;;;;;24.86;53.99;96776.00;2095335;28;20202;-77
2022/10/16 11:58:03;;;;;;;7.32;2.05;;;;;;;24.88;54.48;96780.19;2085264;28;20191;-76
2022/10/16 11:59:22;;;;;;;5.65;1.40;;;;;;;24.44;55.10;96785.44;2088316;28;20192;-74
2022/10/16 12:00:33;;;;;;;5.85;1.15;;;;;;;24.23;56.18;96783.09;2099048;28;20289;-75
2022/10/16 12:01:43;;;;;;;2.50;1.10;;;;;;;23.79;56.81;96768.59;2096755;28;20291;-75
2022/10/16 12:16:23;;;;;;;2.70;1.13;;;;;;;24.92;53.85;96757.53;2097452;28;20192;-72
2022/10/16 12:17:36;;;;;;;3.03;1.30;;;;;;;25.16;52.97;96774.72;2097316;28;20437;-72
2022/10/16 12:18:43;;;;;;;3.75;1.30;;;;;;;25.78;51.42;96779.09;2093947;28;20314;-72
2022/10/16 12:20:00;;;;;;;2.53;1.13;;;;;;;26.54;51.08;96782.66;2096691;28;20287;-72
2022/10/16 12:21:07;;;;;;;3.08;1.45;;;;;;;26.89;49.74;96775.34;2089108;28;20932;-72
2022/10/16 12:22:18;;;;;;;4.80;1.00;;;;;;;27.14;48.80;96775.28;2093221;28;20681;-72
2022/10/16 12:23:22;;;;;;;1.90;1.13;;;;;;;27.66;47.40;96778.56;2091916;28;20607;-72
2022/10/16 12:24:41;;;;;;;2.55;1.42;;;;;;;27.86;47.01;96785.19;2106252;28;20227;-72
2022/10/16 12:25:46;;;;;;;2.20;1.05;;;;;;;27.78;46.87;96784.38;2099512;28;20642;-72
2022/10/16 12:26:49;;;;;;;1.80;1.25;;;;;;;27.84;46.87;96786.34;2096547;28;20245;-71
2022/10/16 12:28:14;;;;;;;2.88;1.13;;;;;;;28.27;46.58;96786.84;2086678;28;20769;-72
2022/10/16 12:29:16;;;;;;;2.83;1.20;;;;;;;28.01;46.89;96779.91;2105028;28;20309;-72
2022/10/16 12:30:23;;;;;;;2.15;1.35;;;;;;;28.42;46.31;96786.09;2099798;28;20235;-69
2022/10/16 12:31:39;;;;;;;4.65;1.00;;;;;;;28.50;45.74;96778.78;2098422;28;20230;-69
2022/10/16 12:33:22;;;;;;;2.40;1.20;;;;;;;27.86;47.38;96776.31;2089680;28;20230;-69
2022/10/16 12:34:29;;;;;;;4.57;1.30;;;;;;;28.21;46.91;96773.31;2099785;28;20234;-69
2022/10/16 12:35:35;;;;;;;4.20;1.23;;;;;;;27.42;48.13;96774.94;2096265;28;20260;-70
2022/10/16 12:36:36;;;;;;;2.67;1.27;;;;;;;26.67;49.32;96770.63;2097179;28;20340;-69
2022/10/16 12:37:38;;;;;;;4.13;1.17;;;;;;;25.89;50.18;96746.69;2087275;28;20230;-69
2022/10/16 12:38:49;;;;;;;3.22;1.23;;;;;;;25.87;52.13;96771.94;2104380;28;20226;-70
2022/10/16 12:39:53;;;;;;;2.15;1.30;;;;;;;25.62;52.60;96752.28;2102177;28;20905;-69
2022/10/16 12:41:03;;;;;;;3.40;1.05;;;;;;;25.79;52.29;96772.75;2097000;28;20203;-72
2022/10/16 12:42:27;;;;;;;5.88;1.45;;;;;;;25.67;52.50;96776.69;2095884;28;20336;-72
2022/10/16 12:43:31;;;;;;;6.07;1.13;;;;;;;25.55;53.47;96776.97;2093275;28;20226;-72
2022/10/16 12:44:35;;;;;;;1.75;0.98;;;;;;;25.58;54.24;96779.34;2104836;28;20199;-70
2022/10/16 12:51:03;;;;;;;1.30;0.90;;;;;;;25.44;51.90;96785.25;2099996;28;20179;-70
2022/10/16 12:52:05;;;;;;;5.78;1.00;;;;;;;25.18;51.86;96774.53;2096343;28;20222;-70
2022/10/16 12:53:22;;;;;;;2.40;1.15;;;;;;;24.73;53.31;96779.91;2094342;28;20238;-70
2022/10/16 12:54:41;;;;;;;5.25;1.20;;;;;;;23.97;53.48;96687.78;2103727;28;20197;-70
2022/10/16 12:56:08;;;;;;;7.53;1.23;;;;;;;24.40;53.99;96773.41;2096544;28;20227;-70
2022/10/16 12:57:31;;;;;;;4.55;1.30;;;;;;;24.36;53.99;96764.03;2104612;28;20719;-70
2022/10/16 12:58:47;;;;;;;3.88;1.10;;;;;;;24.49;53.92;96787.66;2100414;28;20226;-70
2022/10/16 12:59:52;;;;;;;2.35;1.05;;;;;;;24.76;53.71;96784.94;2096809;28;20223;-70
2022/10/16 13:00:59;;;;;;;6.05;1.65;;;;;;;24.86;53.87;96787.53;2096574;28;20238;-70
2022/10/16 13:02:29;;;;;;;4.80;1.20;;;;;;;23.96;56.12;96788.31;2096445;28;20199;-70
2022/10/16 13:03:51;;;;;;;10.45;2.25;;;;;;;24.37;55.42;96787.91;2092507;28;20309;-69
2022/10/16 13:05:18;;;;;;;5.63;2.40;;;;;;;25.18;53.74;96780.75;2102200;28;20253;-70
2022/10/16 13:06:26;;;;;;;6.97;3.92;;;;;;;25.40;55.28;96778.56;2096029;28;20231;-70
2022/10/16 13:08:18;;;;;;;10.75;1.63;;;;;;;25.42;56.10;96787.28;2096784;28;20291;-70
2022/10/16 13:09:42;;;;;;;2.90;1.10;;;;;;;25.30;56.63;96781.31;2071908;28;20301;-70
2022/10/16 13:11:18;;;;;;;2.67;1.02;;;;;;;25.15;57.97;96786.38;2090724;28;20282;-70
2022/10/16 13:12:48;;;;;;;1.83;1.10;;;;;;;24.93;57.92;96785.06;2096935;28;20915;-70
2022/10/16 13:14:23;;;;;;;10.18;1.88;;;;;;;24.75;60.01;96791.28;2098646;28;20215;-70
2022/10/16 13:16:02;;;;;;;2.95;1.08;;;;;;;24.77;59.56;96791.97;2096294;28;20287;-69
2022/10/16 13:17:14;;;;;;;7.57;1.20;;;;;;;24.82;60.35;96790.66;2082994;28;20600;-68
2022/10/16 13:18:25;;;;;;;3.92;1.27;;;;;;;24.59;60.64;96778.59;2083219;28;20239;-69
2022/10/16 13:19:43;;;;;;;9.13;1.33;;;;;;;24.57;60.83;96790.41;2103818;28;20702;-69
2022/10/16 13:20:57;;;;;;;7.10;1.48;;;;;;;24.39;61.21;96787.72;2094769;28;20228;-68
2022/10/16 13:22:10;;;;;;;1.95;1.27;;;;;;;24.49;60.66;96793.00;2095534;28;20218;-68
2022/10/16 13:23:26;;;;;;;3.17;1.55;;;;;;;24.48;61.18;96794.84;2092083;28;20223;-68
2022/10/16 13:24:52;;;;;;;7.03;1.60;;;;;;;24.43;61.41;96794.47;2104315;28;20293;-68
2022/10/16 13:26:21;;;;;;;4.60;1.27;;;;;;;24.29;61.44;96788.66;2097341;28;20191;-68
2022/10/16 13:27:45;;;;;;;4.13;1.58;;;;;;;24.49;60.97;96793.84;2072749;28;20308;-68
2022/10/16 13:28:46;;;;;;;6.88;1.40;;;;;;;24.53;60.86;96802.38;2096211;28;20298;-68
2022/10/16 13:29:55;;;;;;;3.72;1.40;;;;;;;24.69;60.12;96796.41;2096911;28;20302;-69
2022/10/16 13:30:58;;;;;;;5.03;1.33;;;;;;;25.19;58.68;96782.44;2098706;28;20248;-68
2022/10/16 13:32:06;;;;;;;2.50;1.27;;;;;;;25.87;57.17;96788.81;2098215;28;20257;-68
2022/10/16 13:33:26;;;;;;;2.55;1.40;;;;;;;26.10;56.05;96798.13;2090294;28;20230;-68
2022/10/16 13:34:28;;;;;;;3.55;1.30;;;;;;;26.51;55.39;96792.84;2096251;28;20226;-68
2022/10/16 13:35:31;;;;;;;2.10;1.00;;;;;;;26.25;54.62;96721.56;2089512;28;20192;-68
2022/10/16 13:36:45;;;;;;;9.07;1.58;;;;;;;26.46;54.93;96784.47;2088459;28;20339;-68
2022/10/16 13:37:46;;;;;;;5.45;1.02;;;;;;;26.92;54.51;96802.78;2078550;28;20306;-68
2022/10/16 13:38:48;;;;;;;10.77;1.33;;;;;;;27.40;53.35;96795.72;2087827;28;20212;-68
2022/10/16 13:39:50;;;;;;;3.10;1.35;;;;;;;27.77;52.04;96801.47;2088546;28;20581;-68
2022/10/16 13:40:53;;;;;;;1.48;1.02;;;;;;;27.31;53.00;96805.59;2089260;28;20201;-68
2022/10/16 13:42:26;;;;;;;2.22;1.20;;;;;;;26.82;53.49;96794.91;2088577;28;20711;-68
2022/10/16 13:43:43;;;;;;;10.95;1.38;;;;;;;26.89;53.64;96799.44;2075541;28;20227;-69
2022/10/16 13:44:51;;;;;;;6.28;1.17;;;;;;;26.40;55.11;96796.69;2088024;28;20282;-68
2022/10/16 13:46:00;;;;;;;7.15;1.27;;;;;;;26.06;55.45;96792.25;2088603;28;20296;-68
2022/10/16 13:47:02;;;;;;;2.42;1.23;;;;;;;25.84;56.38;96788.28;2090234;28;20784;-68
2022/10/16 13:48:12;;;;;;;4.90;1.23;;;;;;;25.55;56.96;96790.34;2080537;28;20302;-68
2022/10/16 13:49:17;;;;;;;1.52;0.90;;;;;;;25.29;57.26;96784.16;2086901;28;20239;-69
2022/10/16 13:50:21;;;;;;;8.35;1.33;;;;;;;25.09;58.20;96795.06;2086797;28;20287;-69
2022/10/16 13:51:23;;;;;;;4.50;1.23;;;;;;;24.88;59.19;96785.53;2088645;28;20401;-68
2022/10/16 13:52:24;;;;;;;1.45;0.93;;;;;;;24.66;59.40;96789.53;2089035;28;20232;-68
2022/10/16 13:53:26;;;;;;;1.60;1.15;;;;;;;24.44;60.09;96777.44;2077681;28;20243;-68
2022/10/16 13:54:31;;;;;;;3.47;1.13;;;;;;;24.33;60.67;96793.66;2096395;28;20865;-68
2022/10/16 13:55:32;;;;;;;9.35;1.40;;;;;;;24.27;61.22;96789.78;2090110;28;20318;-68
2022/10/16 13:56:34;;;;;;;2.40;1.30;;;;;;;24.44;60.55;96791.66;2088874;28;20203;-69
2022/10/16 14:14:12;;;;;;;7.40;1.70;;;;;;;23.63;63.44;96795.03;2084675;28;20223;-69
2022/10/16 14:15:18;;;;;;;4.47;1.48;;;;;;;23.54;63.52;96801.22;2093009;28;20197;-67
2022/10/16 14:16:23;;;;;;;3.53;1.52;;;;;;;23.44;64.20;96798.63;2091337;28;20259;-70
2022/10/16 14:17:31;;;;;;;2.80;1.40;;;;;;;23.46;64.18;96804.63;2089920;28;20192;-69
2022/10/16 14:18:33;;;;;;;9.18;1.33;;;;;;;23.31;64.49;96802.44;2086143;28;20693;-69
2022/10/16 14:19:36;;;;;;;8.48;1.10;;;;;;;23.31;64.53;96797.09;2097592;28;20727;-69
2022/10/16 14:20:38;;;;;;;6.85;1.40;;;;;;;23.36;64.42;96798.50;2090121;28;20250;-69
2022/10/16 14:21:40;;;;;;;4.53;1.83;;;;;;;23.37;64.68;96810.84;2090298;28;20207;-69
2022/10/16 14:22:42;;;;;;;4.75;1.10;;;;;;;23.38;64.69;96801.84;2079183;28;20231;-70
2022/10/16 14:23:44;;;;;;;3.28;1.10;;;;;;;23.25;64.79;96773.72;2080212;28;20292;-69
2022/10/16 14:24:45;;;;;;;6.93;1.60;;;;;;;23.33;64.95;96802.28;2081269;28;20807;-69
2022/10/16 14:25:47;;;;;;;6.00;1.40;;;;;;;23.17;64.74;96786.88;2081219;28;20372;-70
2022/10/16 14:26:49;;;;;;;5.32;1.20;;;;;;;23.29;64.97;96804.41;2089111;28;20667;-70
2022/10/16 14:27:59;;;;;;;4.72;1.35;;;;;;;23.28;63.91;96805.38;2081803;28;20201;-71
2022/10/16 14:29:12;;;;;;;3.70;1.13;;;;;;;23.34;64.38;96809.28;2097049;28;20204;-70
2022/10/16 14:30:20;;;;;;;6.15;1.40;;;;;;;23.12;65.34;96805.97;2091150;28;20299;-70
2022/10/16 14:31:31;;;;;;;3.50;1.30;;;;;;;23.19;64.85;96797.44;2089752;28;20297;-70
2022/10/16 14:32:32;;;;;;;3.70;1.27;;;;;;;23.07;64.85;96789.56;2089275;28;20291;-69
2022/10/16 14:33:34;;;;;;;8.80;1.40;;;;;;;23.22;64.88;96803.28;2079814;28;20679;-71
2022/10/16 14:34:39;;;;;;;5.82;1.60;;;;;;;23.15;65.16;96808.34;2097385;28;20278;-71
2022/10/16 14:35:41;;;;;;;7.72;1.33;;;;;;;23.14;64.75;96800.47;2097819;28;20207;-70
2022/10/16 14:36:42;;;;;;;10.15;1.70;;;;;;;23.13;64.84;96798.78;2098305;28;20650;-71
2022/10/16 14:37:44;;;;;;;3.42;1.30;;;;;;;22.95;64.87;96778.22;2088126;28;20223;-71
2022/10/16 14:39:14;;;;;;;7.32;1.40;;;;;;;23.30;65.03;96802.59;2096868;28;20191;-71
2022/10/16 14:40:25;;;;;;;5.93;1.33;;;;;;;23.66;63.99;96799.25;2092377;28;20627;-71
2022/10/16 14:41:28;;;;;;;6.38;1.27;;;;;;;23.57;63.58;96795.63;2090086;28;20520;-71
2022/10/16 14:42:30;;;;;;;8.38;1.75;;;;;;;23.64;62.93;96794.88;2097223;28;20279;-71
2022/10/16 14:43:35;;;;;;;3.08;1.30;;;;;;;23.87;62.85;96799.84;2094433;28;20322;-71
2022/10/16 14:44:40;;;;;;;2.50;1.38;;;;;;;24.02;62.34;96794.84;2106026;28;20824;-71
2022/10/16 14:45:43;;;;;;;7.00;1.42;;;;;;;24.10;62.08;96807.47;2097327;28;20298;-71
2022/10/16 14:46:45;;;;;;;3.70;1.75;;;;;;;24.27;61.54;96806.63;2097680;28;20718;-71
2022/10/16 14:47:53;;;;;;;3.15;1.10;;;;;;;23.91;62.03;96771.91;2090542;28;20199;-71
2022/10/16 14:49:10;;;;;;;2.17;1.10;;;;;;;24.23;61.48;96799.09;2105515;28;20817;-71
2022/10/16 14:57:02;;;;;;;2.25;1.05;;;;;;;22.27;64.91;96792.38;2097155;28;20176;-71
2022/10/16 14:58:04;;;;;;;3.70;1.30;;;;;;;21.30;69.22;96791.03;2092341;28;20248;-71
2022/10/16 14:59:07;;;;;;;3.38;1.40;;;;;;;21.19;69.98;96794.63;2105704;28;20655;-71
2022/10/16 15:00:20;;;;;;;9.25;1.35;;;;;;;21.62;68.51;96798.09;2096179;28;20334;-71
2022/10/16 15:01:25;;;;;;;3.60;1.20;;;;;;;21.68;68.03;96768.28;2097135;28;20543;-71
2022/10/16 15:02:32;;;;;;;10.77;1.30;;;;;;;22.06;67.23;96795.13;2096915;28;20562;-71
2022/10/16 15:20:41;;;;;;;4.61;1.58;;;;;;;24.69;59.85;96793.72;4228428;27;389112;-70
2022/10/16 15:21:43;;;;;;;2.95;1.10;;;;;;;24.77;59.66;96797.31;2116378;28;20448;-70
2022/10/16 15:22:44;;;;;;;2.67;1.25;;;;;;;24.72;59.87;96810.28;2097358;28;20571;-70
2022/10/16 15:23:46;;;;;;;7.32;1.45;;;;;;;24.44;59.57;96804.97;2090714;28;20212;-70
2022/10/16 15:24:47;;;;;;;10.07;1.40;;;;;;;24.17;60.30;96808.53;2091033;28;20223;-70
2022/10/16 15:25:54;;;;;;;5.35;1.23;;;;;;;23.84;60.66;96813.44;2091277;28;20287;-69
2022/10/16 15:32:03;;;;;;;4.53;3.17;;;;;;;23.66;61.57;96817.91;2091991;28;20176;-70
2022/10/16 15:33:13;;;;;;;3.40;1.42;;;;;;;23.65;60.51;96798.38;2082479;28;20828;-70
2022/10/16 15:34:14;;;;;;;2.40;1.45;;;;;;;23.69;61.25;96797.09;2092353;28;20279;-70
2022/10/16 15:35:16;;;;;;;6.03;1.48;;;;;;;23.79;60.95;96808.56;2092670;28;20629;-70
2022/10/16 15:36:26;;;;;;;8.38;1.40;;;;;;;23.42;61.04;96797.91;2091624;28;20395;-70
2022/10/16 15:37:27;;;;;;;2.58;1.23;;;;;;;23.19;62.25;96810.75;2089124;28;20852;-74
2022/10/16 15:38:29;;;;;;;9.90;1.30;;;;;;;23.29;62.55;96812.38;2083272;28;20345;-71
2022/10/16 15:39:31;;;;;;;5.90;1.58;;;;;;;23.18;62.25;96801.91;2089823;28;20736;-73
2022/10/16 15:40:32;;;;;;;18.52;14.13;;;;;;;23.30;62.45;96802.59;2094301;28;20247;-70
2022/10/16 15:41:33;;;;;;;17.98;9.32;;;;;;;23.41;62.02;96805.03;2090955;28;20203;-71
2022/10/16 15:42:35;;;;;;;16.15;10.23;;;;;;;23.64;60.78;96804.69;2094468;28;20200;-73
2022/10/16 15:43:36;;;;;;;6.40;2.95;;;;;;;23.77;61.02;96801.72;2094790;28;20286;-73
2022/10/16 15:44:41;;;;;;;14.43;8.57;;;;;;;23.83;60.80;96806.44;2092176;28;20192;-73
2022/10/16 15:45:43;;;;;;;11.48;2.83;;;;;;;23.58;61.13;96806.13;2091245;28;20303;-73
2022/10/16 15:46:44;;;;;;;5.82;1.50;;;;;;;23.03;62.72;96798.81;2091727;28;20200;-73
2022/10/16 15:47:46;;;;;;;8.23;1.70;;;;;;;22.91;63.45;96795.47;2090393;28;20227;-73
2022/10/16 15:48:49;;;;;;;7.72;1.70;;;;;;;22.93;63.19;96793.50;2090277;28;20196;-73
2022/10/16 15:49:51;;;;;;;2.95;1.10;;;;;;;23.14;62.48;96787.16;2089632;28;20678;-73
2022/10/16 15:56:04;;;;;;;6.82;1.45;;;;;;;23.30;62.54;96822.06;2091016;28;20804;-74
2022/10/16 16:47:23;;;;;;;5.35;2.00;;;;;;;18.68;75.82;96786.34;2108155;27;20523;-74
2022/10/16 16:48:25;;;;;;;13.15;2.13;;;;;;;18.95;75.50;96825.75;2103112;28;20277;-74
2022/10/16 16:49:27;;;;;;;16.45;9.57;;;;;;;18.83;75.85;96827.50;2098334;28;20191;-73
